Time;durP1;ratioP1;P1;durP2;ratioP2;P2;SDS_P1;SDS_P2;PMS_P1;PMS_P2;Temp;Humidity;BMP_temperature;BMP_pressure;BME280_temperature;BME280_humidity;BME280_pressure;Samples;Min_cycle;Max_cycle;Signal;HPM_P1;HPM_P2
2023/05/19 00:00:57;;;;;;;1999.90;999.90;;;10.80;99.90;;;;;;5052171;28;20032;-73
2023/05/19 00:03:24;;;;;;;1999.90;999.90;;;10.80;99.90;;;;;;5052388;28;20025;-73
2023/05/19 00:05:52;;;;;;;1999.90;999.90;;;10.80;99.90;;;;;;5052465;28;20033;-79
2023/05/19 00:08:19;;;;;;;1999.90;999.90;;;10.70;99.90;;;;;;5057743;28;20515;-78
2023/05/19 00:10:45;;;;;;;1999.90;999.90;;;10.70;99.90;;;;;;5072724;28;20027;-79
2023/05/19 00:13:11;;;;;;;1999.90;999.90;;;10.70;99.90;;;;;;5071603;28;20533;-73
2023/05/19 00:15:37;;;;;;;1999.90;999.90;;;10.60;99.90;;;;;;5072642;28;20016;-72
2023/05/19 00:18:02;;;;;;;1999.90;999.90;;;10.60;99.90;;;;;;5072330;28;20025;-79
2023/05/19 00:20:28;;;;;;;1999.90;999.90;;;10.60;99.90;;;;;;5072597;28;20032;-78
2023/05/19 00:22:54;;;;;;;1999.90;999.90;;;10.50;99.90;;;;;;5072323;28;20060;-79
2023/05/19 00:25:20;;;;;;;1999.90;999.90;;;10.50;99.90;;;;;;5071682;28;20020;-78
2023/05/19 00:27:45;;;;;;;1999.90;999.90;;;10.50;99.90;;;;;;5072556;28;20035;-73
2023/05/19 00:30:11;;;;;;;1999.90;999.90;;;10.60;99.90;;;;;;5073080;28;20502;-79
2023/05/19 00:32:37;;;;;;;1999.90;999.90;;;10.60;99.90;;;;;;5075947;28;20028;-79
2023/05/19 00:35:03;;;;;;;1999.90;999.90;;;10.50;99.90;;;;;;5076183;28;20028;-78
2023/05/19 00:37:28;;;;;;;1999.90;999.90;;;10.60;99.90;;;;;;5075393;28;20029;-72
2023/05/19 00:39:54;;;;;;;1999.90;999.90;;;10.60;99.90;;;;;;5076113;28;20032;-72
2023/05/19 00:42:20;;;;;;;1999.90;999.90;;;10.60;99.90;;;;;;5076175;28;20438;-73
2023/05/19 00:44:46;;;;;;;1999.90;999.90;;;10.50;99.90;;;;;;5075593;28;20036;-79
2023/05/19 00:47:11;;;;;;;1999.90;999.90;;;10.50;99.90;;;;;;5075912;28;20105;-79
2023/05/19 00:49:37;;;;;;;1999.90;999.90;;;10.50;99.90;;;;;;5075818;28;20020;-79
2023/05/19 00:52:05;;;;;;;1999.90;999.90;;;10.40;99.90;;;;;;5075171;28;20029;-72
2023/05/19 00:54:32;;;;;;;1999.90;999.90;;;10.40;99.90;;;;;;5076119;28;20047;-79
2023/05/19 00:56:59;;;;;;;1999.90;999.90;;;10.30;99.90;;;;;;5075971;28;20024;-72
2023/05/19 00:59:25;;;;;;;1999.90;999.90;;;10.30;99.90;;;;;;5075908;28;20024;-78
2023/05/19 01:01:51;;;;;;;1999.90;999.90;;;10.30;99.90;;;;;;5075663;28;20036;-79
2023/05/19 01:04:20;;;;;;;1999.90;999.90;;;10.30;99.90;;;;;;5075801;28;20031;-72
2023/05/19 01:06:56;;;;;;;1999.90;999.90;;;10.20;99.90;;;;;;5075608;28;20041;-72
2023/05/19 01:09:22;;;;;;;1999.90;999.90;;;10.20;99.90;;;;;;5075293;28;20463;-78
2023/05/19 01:11:51;;;;;;;1999.90;999.90;;;10.20;99.90;;;;;;5075526;28;20025;-79
2023/05/19 01:14:17;;;;;;;1999.90;999.90;;;10.20;99.90;;;;;;5075487;28;20070;-73
2023/05/19 01:16:53;;;;;;;1999.90;999.90;;;10.20;99.90;;;;;;5075584;28;20031;-79
2023/05/19 01:19:38;;;;;;;1999.90;999.90;;;10.10;99.90;;;;;;5075612;28;20064;-72
2023/05/19 01:22:30;;;;;;;1999.90;999.90;;;10.10;99.90;;;;;;5055558;28;20065;-79
2023/05/19 01:25:11;;;;;;;1999.90;999.90;;;10.00;99.90;;;;;;5054966;28;20029;-79
2023/05/19 01:28:01;;;;;;;1999.90;999.90;;;10.00;99.90;;;;;;5054905;28;20361;-72
2023/05/19 01:30:37;;;;;;;1999.90;999.90;;;10.00;99.90;;;;;;5055188;28;20024;-79
2023/05/19 01:33:06;;;;;;;1999.90;999.90;;;9.90;99.90;;;;;;5055259;28;20025;-79
2023/05/19 01:35:36;;;;;;;1999.90;999.90;;;9.90;99.90;;;;;;5055018;28;20049;-78
2023/05/19 01:38:03;;;;;;;1999.90;999.90;;;9.90;99.90;;;;;;5054248;28;20098;-72
2023/05/19 01:40:29;;;;;;;1999.90;999.90;;;9.80;99.90;;;;;;5054971;28;20147;-72
2023/05/19 01:42:57;;;;;;;1999.90;999.90;;;9.80;99.90;;;;;;5054158;28;20033;-72
2023/05/19 01:45:24;;;;;;;1999.90;999.90;;;9.80;99.90;;;;;;5055147;28;20483;-79
2023/05/19 01:47:53;;;;;;;1999.90;999.90;;;9.70;99.90;;;;;;5054613;28;20124;-73
2023/05/19 01:50:19;;;;;;;1999.90;999.90;;;9.70;99.90;;;;;;5054780;28;20071;-79
2023/05/19 01:52:45;;;;;;;1999.90;999.90;;;9.60;99.90;;;;;;5037192;28;20037;-72
2023/05/19 01:55:11;;;;;;;1999.90;999.90;;;9.60;99.90;;;;;;5054823;28;20031;-79
2023/05/19 01:57:44;;;;;;;1999.90;999.90;;;9.50;99.90;;;;;;5055099;28;20072;-72
2023/05/19 02:00:14;;;;;;;1999.90;999.90;;;9.50;99.90;;;;;;5054579;28;20025;-73
2023/05/19 02:02:46;;;;;;;1999.90;999.90;;;9.50;99.90;;;;;;5072149;28;20033;-79
2023/05/19 02:05:44;;;;;;;1999.90;999.90;;;9.40;99.90;;;;;;5074660;28;20438;-78
2023/05/19 02:08:21;;;;;;;1999.90;999.90;;;9.40;99.90;;;;;;5041046;28;20036;-79
2023/05/19 02:10:54;;;;;;;1999.90;999.90;;;9.40;99.90;;;;;;5074776;28;20099;-72
2023/05/19 02:13:28;;;;;;;1999.90;999.90;;;9.30;99.90;;;;;;5074470;28;20476;-72
2023/05/19 02:16:01;;;;;;;1999.90;999.90;;;9.30;99.90;;;;;;5073986;28;20031;-79
2023/05/19 02:18:28;;;;;;;1999.90;999.90;;;9.20;99.90;;;;;;5074478;28;20078;-79
2023/05/19 02:20:54;;;;;;;1999.90;999.90;;;9.20;99.90;;;;;;5074474;28;20048;-79
2023/05/19 02:23:20;;;;;;;1999.90;999.90;;;9.20;99.90;;;;;;5074273;28;20063;-72
2023/05/19 02:25:45;;;;;;;1999.90;999.90;;;9.20;99.90;;;;;;5073926;28;20032;-72
2023/05/19 02:28:11;;;;;;;1999.90;999.90;;;9.10;99.90;;;;;;5074330;28;20028;-79
2023/05/19 02:30:36;;;;;;;1999.90;999.90;;;9.10;99.90;;;;;;5074212;28;20032;-79
2023/05/19 02:33:05;;;;;;;1999.90;999.90;;;9.10;99.90;;;;;;5074145;28;20104;-78
2023/05/19 02:35:31;;;;;;;1999.90;999.90;;;9.00;99.90;;;;;;5074102;28;20024;-72
2023/05/19 02:37:56;;;;;;;1999.90;999.90;;;9.00;99.90;;;;;;5073173;28;20025;-72
2023/05/19 02:40:22;;;;;;;1999.90;999.90;;;9.00;99.90;;;;;;5073832;28;20078;-78
2023/05/19 02:42:47;;;;;;;1999.90;999.90;;;8.90;99.90;;;;;;5074234;28;20108;-79
2023/05/19 02:45:13;;;;;;;1999.90;999.90;;;8.90;99.90;;;;;;5074255;28;20039;-79
2023/05/19 02:47:40;;;;;;;1999.90;999.90;;;8.90;99.90;;;;;;5055722;28;20033;-79
2023/05/19 02:50:06;;;;;;;1999.90;999.90;;;8.90;99.90;;;;;;5073614;28;20025;-72
2023/05/19 02:52:32;;;;;;;1999.90;999.90;;;8.90;99.90;;;;;;5073857;28;20024;-79
2023/05/19 02:54:57;;;;;;;1999.90;999.90;;;8.90;99.90;;;;;;5073492;28;20391;-79
2023/05/19 02:57:23;;;;;;;1999.90;999.90;;;8.80;99.90;;;;;;5073827;28;20344;-75
2023/05/19 02:59:49;;;;;;;1999.90;999.90;;;8.80;99.90;;;;;;5073613;28;20032;-79
2023/05/19 03:02:15;;;;;;;1999.90;999.90;;;8.80;99.90;;;;;;5073422;28;20032;-72
2023/05/19 03:04:41;;;;;;;1999.90;999.90;;;8.80;99.90;;;;;;5073885;28;20490;-72
2023/05/19 03:07:12;;;;;;;1999.90;999.90;;;8.80;99.90;;;;;;5073344;28;20067;-79
2023/05/19 03:09:38;;;;;;;1999.90;999.90;;;8.80;99.90;;;;;;5073166;28;20032;-79
2023/05/19 03:12:06;;;;;;;1999.90;999.90;;;8.80;99.90;;;;;;5073343;28;20070;-73
2023/05/19 03:14:33;;;;;;;1999.90;999.90;;;8.80;99.90;;;;;;5073260;28;20020;-72
2023/05/19 03:16:59;;;;;;;1999.90;999.90;;;8.80;99.90;;;;;;5073141;28;20118;-72
2023/05/19 03:19:25;;;;;;;1999.90;999.90;;;8.80;99.90;;;;;;5073620;28;20487;-73
2023/05/19 03:21:51;;;;;;;1999.90;999.90;;;8.80;99.90;;;;;;5055367;28;20034;-78
2023/05/19 03:24:17;;;;;;;1999.90;999.90;;;8.80;99.90;;;;;;5073476;28;20032;-79
2023/05/19 03:26:42;;;;;;;1999.90;999.90;;;8.70;99.90;;;;;;5073262;28;20633;-72
2023/05/19 03:29:08;;;;;;;1999.90;999.90;;;8.70;99.90;;;;;;5073410;28;20031;-73
2023/05/19 03:31:33;;;;;;;1999.90;999.90;;;8.70;99.90;;;;;;5073071;28;20022;-78
2023/05/19 03:33:59;;;;;;;1999.90;999.90;;;8.70;99.90;;;;;;5073282;28;20365;-78
2023/05/19 03:36:30;;;;;;;1999.90;999.90;;;8.70;99.90;;;;;;5073052;28;20031;-78
2023/05/19 03:38:56;;;;;;;1999.90;999.90;;;8.70;99.90;;;;;;5072279;28;20024;-79
2023/05/19 03:41:22;;;;;;;1999.90;999.90;;;8.70;99.90;;;;;;5073253;28;20070;-72
2023/05/19 03:43:48;;;;;;;1999.90;999.90;;;8.70;99.90;;;;;;5073061;28;20430;-72
2023/05/19 03:46:13;;;;;;;1999.90;999.90;;;8.70;99.90;;;;;;5055088;28;20060;-79
2023/05/19 03:48:40;;;;;;;1999.90;999.90;;;8.70;99.90;;;;;;5073126;28;20078;-78
2023/05/19 03:51:05;;;;;;;1999.90;999.90;;;8.60;99.90;;;;;;5072878;28;20024;-79
2023/05/19 03:53:31;;;;;;;1999.90;999.90;;;8.60;99.90;;;;;;5073376;28;20090;-73
2023/05/19 03:55:58;;;;;;;1999.90;999.90;;;8.60;99.90;;;;;;5072994;28;20100;-72
2023/05/19 03:58:24;;;;;;;1999.90;999.90;;;8.60;99.90;;;;;;5073135;28;20048;-78
2023/05/19 04:00:50;;;;;;;1999.90;999.90;;;8.60;99.90;;;;;;5072723;28;20020;-79
2023/05/19 04:03:15;;;;;;;1999.90;999.90;;;8.50;99.90;;;;;;5072647;28;20107;-79
2023/05/19 04:05:41;;;;;;;1999.90;999.90;;;8.60;99.90;;;;;;5074575;28;20407;-79
2023/05/19 04:08:06;;;;;;;1999.90;999.90;;;8.50;99.90;;;;;;5076783;28;20049;-72
2023/05/19 04:10:32;;;;;;;1999.90;999.90;;;8.50;99.90;;;;;;5076806;28;20519;-79
2023/05/19 04:12:58;;;;;;;1999.90;999.90;;;8.50;99.90;;;;;;5076754;28;20063;-72
2023/05/19 04:15:23;;;;;;;1999.90;999.90;;;8.50;99.90;;;;;;5076133;28;20028;-79
2023/05/19 04:17:49;;;;;;;1999.90;999.90;;;8.40;99.90;;;;;;5055198;28;20033;-79
2023/05/19 04:20:15;;;;;;;1999.90;999.90;;;8.40;99.90;;;;;;5056813;28;20040;-72
2023/05/19 04:22:40;;;;;;;1999.90;999.90;;;8.40;99.90;;;;;;5056042;28;20501;-72
2023/05/19 04:25:07;;;;;;;1999.90;999.90;;;8.40;99.90;;;;;;5056631;28;20116;-72
2023/05/19 04:27:37;;;;;;;1999.90;999.90;;;8.40;99.90;;;;;;5056531;28;20025;-78
2023/05/19 04:30:03;;;;;;;1999.90;999.90;;;8.40;99.90;;;;;;5056262;28;20129;-72
2023/05/19 04:32:29;;;;;;;1999.90;999.90;;;8.40;99.90;;;;;;5056422;28;20100;-72
2023/05/19 04:34:57;;;;;;;1999.90;999.90;;;8.50;99.90;;;;;;5056654;28;20112;-72
2023/05/19 04:37:26;;;;;;;1999.90;999.90;;;8.50;99.90;;;;;;5056494;28;20547;-79
2023/05/19 04:39:51;;;;;;;1999.90;999.90;;;8.50;99.90;;;;;;5055343;28;20760;-79
2023/05/19 04:42:20;;;;;;;1999.90;999.90;;;8.50;99.90;;;;;;5056016;28;20031;-77
2023/05/19 04:44:48;;;;;;;1999.90;999.90;;;8.50;99.90;;;;;;5056523;28;20025;-72
2023/05/19 04:47:14;;;;;;;1999.90;999.90;;;8.50;99.90;;;;;;5056257;28;20025;-72
2023/05/19 04:49:40;;;;;;;1999.90;999.90;;;8.50;99.90;;;;;;5056258;28;20017;-78
2023/05/19 04:52:07;;;;;;;1999.90;999.90;;;8.50;99.90;;;;;;5056096;28;20036;-79
2023/05/19 04:54:36;;;;;;;1999.90;999.90;;;8.60;99.90;;;;;;5056025;28;20021;-79
2023/05/19 04:57:03;;;;;;;1999.90;999.90;;;8.60;99.90;;;;;;5056223;28;20461;-72
2023/05/19 04:59:28;;;;;;;1999.90;999.90;;;8.50;99.90;;;;;;5055974;28;20021;-78
2023/05/19 05:01:55;;;;;;;1999.90;999.90;;;8.60;99.90;;;;;;5067153;28;20062;-72
2023/05/19 05:04:21;;;;;;;1999.90;999.90;;;8.70;99.90;;;;;;5075912;28;20025;-78
2023/05/19 05:06:47;;;;;;;1999.90;999.90;;;8.60;99.90;;;;;;5075620;28;20074;-79
2023/05/19 05:09:16;;;;;;;1999.90;999.90;;;8.60;99.90;;;;;;5058054;28;20403;-78
2023/05/19 05:11:43;;;;;;;1999.90;999.90;;;8.70;99.90;;;;;;5075719;28;20025;-72
2023/05/19 05:14:09;;;;;;;1999.90;999.90;;;8.70;99.90;;;;;;5075666;28;20525;-72
2023/05/19 05:16:35;;;;;;;1999.90;999.90;;;8.80;99.90;;;;;;5075461;28;20017;-79
2023/05/19 05:19:01;;;;;;;1999.90;999.90;;;8.80;99.90;;;;;;5057506;28;20107;-78
2023/05/19 05:21:28;;;;;;;1999.90;999.90;;;8.80;99.90;;;;;;5075737;28;20368;-78
2023/05/19 05:23:54;;;;;;;1999.90;999.90;;;8.90;99.90;;;;;;5075256;28;20017;-79
2023/05/19 05:26:22;;;;;;;1999.90;999.90;;;8.90;99.90;;;;;;5075873;28;20024;-79
2023/05/19 05:28:48;;;;;;;1999.90;999.90;;;9.00;99.90;;;;;;5075336;28;20044;-78
2023/05/19 05:31:14;;;;;;;1999.90;999.90;;;9.00;99.90;;;;;;5075393;28;20395;-79
2023/05/19 05:33:40;;;;;;;1999.90;999.90;;;9.00;99.90;;;;;;5075263;28;20023;-78
2023/05/19 05:36:06;;;;;;;1999.90;999.90;;;9.10;99.90;;;;;;5075147;28;20058;-78
2023/05/19 05:38:32;;;;;;;1999.90;999.90;;;9.10;99.90;;;;;;5075305;28;20036;-72
2023/05/19 05:40:57;;;;;;;1999.90;999.90;;;9.20;99.90;;;;;;5074578;28;20078;-79
2023/05/19 05:43:23;;;;;;;1999.90;999.90;;;9.20;99.90;;;;;;5063476;28;20033;-73
2023/05/19 05:45:48;;;;;;;1999.90;999.90;;;9.30;99.90;;;;;;5065487;28;20032;-79
2023/05/19 05:48:14;;;;;;;1999.90;999.90;;;9.30;99.90;;;;;;5073759;28;20028;-79
2023/05/19 05:50:43;;;;;;;1999.90;999.90;;;9.40;99.90;;;;;;5074074;28;20048;-73
2023/05/19 05:53:11;;;;;;;1999.90;999.90;;;9.50;99.90;;;;;;5059162;28;20040;-73
2023/05/19 05:55:37;;;;;;;1999.90;999.90;;;9.60;99.90;;;;;;5073646;28;20104;-79
2023/05/19 05:58:02;;;;;;;1999.90;999.90;;;9.60;99.90;;;;;;5073997;28;20448;-79
2023/05/19 06:00:28;;;;;;;1999.90;999.90;;;9.70;99.90;;;;;;5074278;28;20414;-78
2023/05/19 06:02:54;;;;;;;1999.90;999.90;;;9.70;99.90;;;;;;5066803;28;20048;-72
2023/05/19 06:05:19;;;;;;;1999.90;999.90;;;9.80;99.90;;;;;;5074232;28;20024;-72
2023/05/19 06:07:45;;;;;;;1999.90;999.90;;;9.90;99.90;;;;;;5055602;28;20037;-79
2023/05/19 06:10:11;;;;;;;1999.90;999.90;;;10.00;99.90;;;;;;5073824;28;20099;-79
2023/05/19 06:12:41;;;;;;;1999.90;999.90;;;10.10;99.90;;;;;;5073465;28;20031;-79
2023/05/19 06:15:07;;;;;;;1999.90;999.90;;;10.10;99.90;;;;;;5073926;28;20399;-78
2023/05/19 06:17:34;;;;;;;1999.90;999.90;;;10.20;99.90;;;;;;5071136;28;20039;-73
2023/05/19 06:20:04;;;;;;;1999.90;999.90;;;10.20;99.90;;;;;;5073470;28;20031;-72
2023/05/19 06:22:30;;;;;;;1999.90;999.90;;;10.30;99.90;;;;;;5070688;28;20044;-79
2023/05/19 06:24:56;;;;;;;1999.90;999.90;;;10.30;99.90;;;;;;5073336;28;20064;-79
2023/05/19 06:27:21;;;;;;;1999.90;999.90;;;10.40;99.90;;;;;;5073354;28;20025;-73
2023/05/19 06:29:47;;;;;;;1999.90;999.90;;;10.50;99.90;;;;;;5072842;28;20369;-73
2023/05/19 06:32:13;;;;;;;1999.90;999.90;;;10.60;99.90;;;;;;5073449;28;20032;-73
2023/05/19 06:34:39;;;;;;;1999.90;999.90;;;10.70;99.90;;;;;;5073544;28;20056;-79
2023/05/19 06:37:05;;;;;;;1999.90;999.90;;;10.70;99.90;;;;;;5073043;28;20013;-79
2023/05/19 06:39:31;;;;;;;1999.90;999.90;;;10.80;99.90;;;;;;5073256;28;20487;-72
2023/05/19 06:41:56;;;;;;;1999.90;999.90;;;11.00;99.90;;;;;;5072479;28;20067;-72
2023/05/19 06:44:22;;;;;;;1999.90;999.90;;;11.00;99.90;;;;;;5055071;28;20032;-72
2023/05/19 06:46:47;;;;;;;1999.90;999.90;;;11.10;99.90;;;;;;5073220;28;20040;-79
2023/05/19 06:49:13;;;;;;;1999.90;999.90;;;11.20;99.90;;;;;;5072320;28;20565;-72
2023/05/19 06:51:39;;;;;;;1999.90;999.90;;;11.40;99.90;;;;;;5072983;28;20025;-78
2023/05/19 06:54:04;;;;;;;1999.90;999.90;;;11.50;99.90;;;;;;5073591;28;20024;-79
2023/05/19 06:56:30;;;;;;;1999.90;999.90;;;11.60;99.90;;;;;;5073119;28;20029;-73
2023/05/19 06:58:55;;;;;;;1999.90;999.90;;;11.70;99.90;;;;;;5072673;28;20029;-73
2023/05/19 07:01:21;;;;;;;1999.90;999.90;;;11.80;99.90;;;;;;5072604;28;20036;-79
2023/05/19 07:03:47;;;;;;;1999.90;999.90;;;12.00;99.90;;;;;;5072661;28;20056;-73
2023/05/19 07:06:12;;;;;;;1999.90;999.90;;;12.10;99.90;;;;;;5067616;28;20060;-77
2023/05/19 07:08:38;;;;;;;1999.90;999.90;;;12.30;99.90;;;;;;5069311;28;20621;-72
2023/05/19 07:11:03;;;;;;;1999.90;999.90;;;12.40;99.90;;;;;;5072450;28;20115;-79
2023/05/19 07:13:29;;;;;;;1999.90;999.90;;;12.40;99.90;;;;;;5066501;28;20028;-77
2023/05/19 07:15:55;;;;;;;1999.90;999.90;;;12.60;99.90;;;;;;5066573;28;20105;-77
2023/05/19 07:18:21;;;;;;;1999.90;999.90;;;12.80;99.90;;;;;;5070504;28;20039;-78
2023/05/19 07:20:46;;;;;;;1999.90;999.90;;;13.00;99.90;;;;;;5071385;28;20099;-73
2023/05/19 07:23:12;;;;;;;1999.90;999.90;;;13.00;99.90;;;;;;5071745;28;20024;-73
2023/05/19 07:25:38;;;;;;;1999.90;999.90;;;13.20;99.90;;;;;;5074577;28;20452;-79
2023/05/19 07:28:04;;;;;;;1999.90;999.90;;;13.40;99.90;;;;;;5058093;28;20526;-79
2023/05/19 07:30:30;;;;;;;1999.90;999.90;;;13.50;99.90;;;;;;5071773;28;20044;-79
2023/05/19 07:32:55;;;;;;;1999.90;999.90;;;13.60;99.90;;;;;;5073691;28;20135;-79
2023/05/19 07:35:21;;;;;;;1999.90;999.90;;;13.90;99.90;;;;;;5075040;28;20511;-79
2023/05/19 07:37:48;;;;;;;1999.90;999.90;;;14.70;99.90;;;;;;5071796;28;20050;-73
2023/05/19 07:40:13;;;;;;;1999.90;999.90;;;17.00;99.90;;;;;;5071187;28;20028;-80
2023/05/19 07:42:40;;;;;;;1999.90;999.90;;;19.60;99.90;;;;;;5071182;28;20792;-80
2023/05/19 07:45:06;;;;;;;1999.90;999.90;;;21.00;99.90;;;;;;5071280;28;20496;-80
2023/05/19 07:47:32;;;;;;;1999.90;999.90;;;22.30;99.90;;;;;;5071377;28;20547;-74
2023/05/19 07:49:57;;;;;;;1999.90;999.90;;;22.50;99.90;;;;;;5079297;28;20115;-74
2023/05/19 07:52:23;;;;;;;1999.90;999.90;;;22.40;99.90;;;;;;5071663;28;20028;-80
2023/05/19 07:54:48;;;;;;;1999.90;999.90;;;22.70;99.90;;;;;;5071818;28;20088;-79
2023/05/19 07:57:14;;;;;;;1999.90;999.90;;;22.40;99.90;;;;;;5071788;28;20055;-80
2023/05/19 07:59:40;;;;;;;1999.90;999.90;;;23.00;99.90;;;;;;5071284;28;20028;-79
2023/05/19 08:02:06;;;;;;;1999.90;999.90;;;24.00;99.90;;;;;;5064663;28;20028;-74
2023/05/19 08:04:32;;;;;;;1999.90;999.90;;;24.10;99.10;;;;;;5073182;28;20344;-73
2023/05/19 08:06:58;;;;;;;1999.90;999.90;;;24.50;98.90;;;;;;5071232;28;20033;-80
2023/05/19 08:09:24;;;;;;;1999.90;999.90;;;25.30;98.00;;;;;;5079813;28;20048;-80
2023/05/19 08:11:49;;;;;;;1999.90;999.90;;;25.40;97.10;;;;;;5071577;28;20499;-80
2023/05/19 08:14:15;;;;;;;1999.90;999.90;;;25.50;95.20;;;;;;5071116;28;20435;-74
2023/05/19 08:16:41;;;;;;;1999.90;999.90;;;24.70;96.40;;;;;;5071455;28;20422;-74
2023/05/19 08:19:08;;;;;;;1999.90;999.90;;;25.80;96.90;;;;;;5081220;28;20488;-74
2023/05/19 08:21:34;;;;;;;1999.90;999.90;;;26.50;95.60;;;;;;5063233;28;20047;-80
2023/05/19 08:24:00;;;;;;;1999.90;999.90;;;27.30;93.90;;;;;;5075928;28;20021;-80
2023/05/19 08:26:26;;;;;;;1999.90;999.90;;;27.30;94.10;;;;;;5071420;28;20164;-74
2023/05/19 08:28:52;;;;;;;1999.90;999.90;;;27.20;93.80;;;;;;5071268;28;20029;-74
2023/05/19 08:31:18;;;;;;;1999.90;999.90;;;26.70;93.50;;;;;;5071402;28;20029;-81
2023/05/19 08:33:44;;;;;;;1999.90;999.90;;;27.50;93.20;;;;;;5081928;28;20028;-80
2023/05/19 08:36:10;;;;;;;1999.90;999.90;;;28.00;92.30;;;;;;5071186;28;20124;-74
2023/05/19 08:38:35;;;;;;;1999.90;999.90;;;28.70;92.10;;;;;;5075029;28;20542;-73
2023/05/19 08:41:01;;;;;;;1999.90;999.90;;;29.20;91.30;;;;;;5072233;28;20443;-74
2023/05/19 08:43:27;;;;;;;1999.90;999.90;;;28.30;91.00;;;;;;5078783;28;20052;-80
2023/05/19 08:45:54;;;;;;;1999.90;999.90;;;27.40;90.80;;;;;;5063614;28;20391;-80
2023/05/19 08:48:21;;;;;;;1999.90;999.90;;;26.80;91.60;;;;;;5071270;28;20503;-81
2023/05/19 08:51:02;;;;;;;1999.90;999.90;;;27.00;91.40;;;;;;5053081;28;20063;-79
2023/05/19 08:53:35;;;;;;;1999.90;999.90;;;26.60;91.50;;;;;;5065586;28;20099;-74
2023/05/19 08:56:10;;;;;;;1999.90;999.90;;;25.80;91.80;;;;;;5073306;28;20031;-80
2023/05/19 08:58:40;;;;;;;1999.90;999.90;;;28.00;92.70;;;;;;5074849;28;20020;-80
2023/05/19 09:01:07;;;;;;;1999.90;999.90;;;28.90;90.20;;;;;;5073800;28;20032;-81
2023/05/19 09:03:37;;;;;;;1999.90;999.90;;;27.90;89.80;;;;;;5074837;28;20025;-80
2023/05/19 09:06:12;;;;;;;1999.90;999.90;;;28.10;91.60;;;;;;5073972;28;20491;-74
2023/05/19 09:08:39;;;;;;;1999.90;999.90;;;28.40;90.20;;;;;;5074809;28;20135;-74
2023/05/19 09:11:04;;;;;;;1999.90;999.90;;;27.90;90.00;;;;;;5074693;28;20530;-81
2023/05/19 09:13:30;;;;;;;1999.90;999.90;;;27.20;90.10;;;;;;5073241;28;20040;-80
2023/05/19 09:15:57;;;;;;;1999.90;999.90;;;26.60;90.10;;;;;;5063392;28;20035;-81
2023/05/19 09:18:25;;;;;;;1999.90;999.90;;;26.70;92.30;;;;;;5069400;28;20021;-75
2023/05/19 09:20:59;;;;;;;1999.90;999.90;;;27.60;90.40;;;;;;5071169;28;20039;-74
2023/05/19 09:23:31;;;;;;;1999.90;999.90;;;29.10;89.60;;;;;;5055468;28;20033;-81
2023/05/19 09:26:00;;;;;;;1999.90;999.90;;;29.70;87.90;;;;;;5070114;28;20107;-79
2023/05/19 09:28:28;;;;;;;1999.90;999.90;;;28.60;85.30;;;;;;5072572;28;20476;-81
2023/05/19 09:31:03;;;;;;;1999.90;999.90;;;28.60;86.90;;;;;;5073334;28;20024;-74
2023/05/19 09:33:31;;;;;;;1999.90;999.90;;;28.90;90.10;;;;;;5072550;28;20063;-75
2023/05/19 09:35:57;;;;;;;1999.90;999.90;;;28.40;88.80;;;;;;5058485;28;20030;-81
2023/05/19 09:38:24;;;;;;;1999.90;999.90;;;27.30;86.70;;;;;;5073259;28;20021;-81
2023/05/19 09:40:51;;;;;;;1999.90;999.90;;;27.70;86.60;;;;;;5073420;28;20359;-81
2023/05/19 09:43:16;;;;;;;1999.90;999.90;;;27.50;88.20;;;;;;5072862;28;20024;-80
2023/05/19 09:45:42;;;;;;;1999.90;999.90;;;27.70;86.30;;;;;;5072380;28;20036;-75
2023/05/19 09:48:07;;;;;;;1999.90;999.90;;;27.30;85.30;;;;;;5072387;28;20025;-74
2023/05/19 09:50:34;;;;;;;1999.90;999.90;;;27.50;87.80;;;;;;5072222;28;20507;-80
2023/05/19 09:53:01;;;;;;;1999.90;999.90;;;27.30;87.60;;;;;;5072547;28;20017;-80
2023/05/19 09:55:28;;;;;;;1999.90;999.90;;;28.00;87.30;;;;;;5072865;28;20036;-81
2023/05/19 09:57:56;;;;;;;1999.90;999.90;;;27.90;87.60;;;;;;5054766;28;20392;-75
2023/05/19 10:00:22;;;;;;;1999.90;999.90;;;28.20;88.90;;;;;;5070702;28;20034;-75
2023/05/19 10:02:49;;;;;;;1999.90;999.90;;;28.00;87.30;;;;;;5066071;28;20031;-81
2023/05/19 10:05:18;;;;;;;1999.90;999.90;;;28.90;85.00;;;;;;5066892;28;20479;-81
2023/05/19 10:07:47;;;;;;;1999.90;999.90;;;28.60;86.20;;;;;;5064772;28;20173;-81
2023/05/19 10:10:14;;;;;;;1999.90;999.90;;;27.30;86.70;;;;;;5062414;28;20075;-80
2023/05/19 10:12:40;;;;;;;1999.90;999.90;;;27.60;88.50;;;;;;5070946;28;20020;-74
2023/05/19 10:15:11;;;;;;;1999.90;999.90;;;28.50;87.30;;;;;;5066513;28;20033;-81
2023/05/19 10:17:39;;;;;;;1999.90;999.90;;;27.60;86.60;;;;;;5070278;28;20116;-74
2023/05/19 10:20:15;;;;;;;1999.90;999.90;;;27.80;86.90;;;;;;5071990;28;20025;-81
2023/05/19 10:22:43;;;;;;;1999.90;999.90;;;28.20;87.80;;;;;;5072370;28;20020;-74
2023/05/19 10:25:10;;;;;;;1999.90;999.90;;;27.70;87.90;;;;;;5072016;28;20105;-74
2023/05/19 10:27:42;;;;;;;1999.90;999.90;;;26.60;86.50;;;;;;5071028;28;20052;-81
2023/05/19 10:30:18;;;;;;;1999.90;999.90;;;27.20;86.90;;;;;;5071741;28;20102;-81
2023/05/19 10:32:47;;;;;;;1999.90;999.90;;;27.40;87.00;;;;;;5066527;28;20471;-75
2023/05/19 10:35:28;;;;;;;1999.90;999.90;;;27.40;86.50;;;;;;5072496;28;20021;-75
2023/05/19 10:38:15;;;;;;;1999.90;999.90;;;26.70;87.20;;;;;;5071607;28;20079;-74
2023/05/19 10:40:50;;;;;;;1999.90;999.90;;;26.70;87.80;;;;;;5071978;28;20029;-81
2023/05/19 10:43:37;;;;;;;1999.90;999.90;;;26.60;88.10;;;;;;5071657;28;20040;-74
2023/05/19 10:46:04;;;;;;;1999.90;999.90;;;26.40;88.00;;;;;;5061802;28;20563;-81
2023/05/19 10:48:34;;;;;;;1999.90;999.90;;;26.30;88.70;;;;;;5071966;28;20024;-81
2023/05/19 10:51:01;;;;;;;1999.90;999.90;;;27.60;88.80;;;;;;5063823;28;20020;-74
2023/05/19 10:53:33;;;;;;;1999.90;999.90;;;27.50;89.60;;;;;;5072417;28;20033;-79
2023/05/19 10:56:05;;;;;;;1999.90;999.90;;;27.10;87.00;;;;;;5071279;28;20029;-80
2023/05/19 10:58:43;;;;;;;1999.90;999.90;;;26.40;90.00;;;;;;5071816;28;20021;-81
2023/05/19 11:01:13;;;;;;;1999.90;999.90;;;26.70;88.10;;;;;;5071377;28;20866;-80
2023/05/19 11:03:44;;;;;;;1999.90;999.90;;;26.10;89.30;;;;;;5071877;28;20047;-81
2023/05/19 11:06:23;;;;;;;1999.90;999.90;;;26.50;88.30;;;;;;5071046;28;20024;-80
2023/05/19 11:09:22;;;;;;;1999.90;999.90;;;27.20;88.10;;;;;;5068155;28;20369;-81
2023/05/19 11:11:54;;;;;;;1999.90;999.90;;;27.50;86.40;;;;;;5063408;28;20090;-81
2023/05/19 11:14:24;;;;;;;1999.90;999.90;;;28.00;88.00;;;;;;5071666;28;20028;-81
2023/05/19 11:16:51;;;;;;;1999.90;999.90;;;27.80;85.20;;;;;;5071669;28;20079;-74
2023/05/19 11:19:29;;;;;;;1999.90;999.90;;;29.30;87.00;;;;;;5051952;28;20435;-80
2023/05/19 11:21:56;;;;;;;1999.90;999.90;;;26.60;84.60;;;;;;5072028;28;20040;-79
2023/05/19 11:24:38;;;;;;;1999.90;999.90;;;26.30;88.00;;;;;;5063817;28;20024;-81
2023/05/19 11:27:29;;;;;;;1999.90;999.90;;;27.10;88.20;;;;;;5053296;28;20047;-80
2023/05/19 11:30:08;;;;;;;1999.90;999.90;;;26.30;87.70;;;;;;5053191;28;20036;-75
2023/05/19 11:32:38;;;;;;;1999.90;999.90;;;25.40;89.10;;;;;;5071626;28;20020;-81
2023/05/19 11:35:04;;;;;;;1999.90;999.90;;;26.30;90.40;;;;;;5070869;28;20017;-80
2023/05/19 11:37:33;;;;;;;1999.90;999.90;;;27.90;89.10;;;;;;5070804;28;20016;-80
2023/05/19 11:40:08;;;;;;;1999.90;999.90;;;28.70;88.40;;;;;;5071123;28;20024;-79
2023/05/19 11:42:35;;;;;;;1999.90;999.90;;;27.60;86.90;;;;;;5071099;28;20024;-74
2023/05/19 11:45:01;;;;;;;1999.90;999.90;;;28.00;90.00;;;;;;5071257;28;20044;-80
2023/05/19 11:47:27;;;;;;;1999.90;999.90;;;28.00;87.30;;;;;;5070370;28;20028;-80
2023/05/19 11:49:55;;;;;;;1999.90;999.90;;;26.10;87.10;;;;;;5071086;28;20078;-81
2023/05/19 11:52:24;;;;;;;1999.90;999.90;;;26.60;89.60;;;;;;5070883;28;20345;-80
2023/05/19 11:54:51;;;;;;;1999.90;999.90;;;26.70;86.60;;;;;;5070886;28;20027;-75
2023/05/19 11:57:17;;;;;;;1999.90;999.90;;;27.20;87.80;;;;;;5070940;28;20021;-74
2023/05/19 11:59:44;;;;;;;1999.90;999.90;;;25.30;90.00;;;;;;5070588;28;20086;-80
2023/05/19 12:02:18;;;;;;;1999.90;999.90;;;24.30;91.80;;;;;;5052949;28;20430;-77
2023/05/19 12:04:50;;;;;;;1999.90;999.90;;;24.80;90.40;;;;;;5070945;28;20025;-80
2023/05/19 12:07:18;;;;;;;1999.90;999.90;;;26.20;91.20;;;;;;5058833;28;20063;-74